Time;durP1;ratioP1;P1;durP2;ratioP2;P2;SDS_P1;SDS_P2;PMS_P1;PMS_P2;Temp;Humidity;BMP_temperature;BMP_pressure;BME280_temperature;BME280_humidity;BME280_pressure;Samples;Min_cycle;Max_cycle;Signal;HPM_P1;HPM_P2
2021/04/27 00:02:12;;;;;;;10.67;4.87;;;6.60;99.90;;;;;;5080172;28;20828;-84
2021/04/27 00:04:39;;;;;;;17.03;5.70;;;6.60;99.90;;;;;;5080607;28;20548;-84
2021/04/27 00:07:05;;;;;;;11.67;4.80;;;6.50;99.90;;;;;;5079548;28;20498;-84
2021/04/27 00:09:32;;;;;;;10.60;4.70;;;6.50;99.90;;;;;;5088699;28;20457;-85
2021/04/27 00:11:58;;;;;;;11.00;5.30;;;6.40;99.90;;;;;;5078005;28;20526;-84
2021/04/27 00:14:24;;;;;;;9.97;4.27;;;6.40;99.90;;;;;;5079647;28;20450;-83
2021/04/27 00:16:51;;;;;;;12.83;5.57;;;6.40;99.90;;;;;;5081778;28;20542;-87
2021/04/27 00:19:17;;;;;;;13.90;5.50;;;6.40;99.90;;;;;;5083862;28;20457;-84
2021/04/27 00:21:44;;;;;;;10.60;5.10;;;6.30;99.90;;;;;;5080316;28;20443;-84
2021/04/27 00:24:11;;;;;;;10.27;4.63;;;6.30;99.90;;;;;;5080082;28;20454;-82
2021/04/27 00:26:38;;;;;;;14.37;5.23;;;6.20;99.90;;;;;;5081172;28;21094;-84
2021/04/27 00:29:04;;;;;;;16.53;5.57;;;6.20;99.90;;;;;;5082069;28;20545;-86
2021/04/27 00:31:31;;;;;;;13.20;5.00;;;6.10;99.90;;;;;;5080385;28;20451;-85
2021/04/27 00:33:58;;;;;;;11.60;5.70;;;6.10;99.90;;;;;;5087366;28;20446;-84
2021/04/27 00:36:25;;;;;;;9.47;5.03;;;6.10;99.90;;;;;;5081434;28;21023;-83
2021/04/27 00:38:53;;;;;;;11.13;5.80;;;6.10;99.90;;;;;;5089212;28;20505;-83
2021/04/27 00:41:20;;;;;;;10.10;4.17;;;6.00;99.90;;;;;;5096479;28;21367;-86
2021/04/27 00:43:49;;;;;;;11.43;5.10;;;6.00;99.90;;;;;;5079990;28;20448;-81
2021/04/27 00:46:16;;;;;;;11.70;4.83;;;5.90;99.90;;;;;;5079075;28;20532;-85
2021/04/27 00:48:42;;;;;;;10.97;5.40;;;5.80;99.90;;;;;;5087923;28;20561;-85
2021/04/27 00:51:08;;;;;;;10.70;4.63;;;5.80;99.90;;;;;;5092299;28;20853;-86
2021/04/27 00:53:35;;;;;;;10.43;5.03;;;5.80;99.90;;;;;;5080162;28;20456;-82
2021/04/27 00:56:03;;;;;;;10.83;5.20;;;5.70;99.90;;;;;;5080009;28;20540;-85
2021/04/27 00:58:33;;;;;;;9.70;4.47;;;5.70;99.90;;;;;;5085542;28;20848;-81
2021/04/27 01:01:00;;;;;;;12.93;5.53;;;5.60;99.90;;;;;;5094544;28;20432;-80
2021/04/27 01:03:26;;;;;;;9.70;4.50;;;5.60;99.90;;;;;;5079984;28;20964;-85
2021/04/27 01:05:53;;;;;;;11.93;5.90;;;5.60;99.90;;;;;;5078593;28;20489;-83
2021/04/27 01:08:25;;;;;;;10.30;5.17;;;5.60;99.90;;;;;;5077741;28;20881;-85
2021/04/27 01:10:58;;;;;;;10.83;5.30;;;5.60;99.90;;;;;;5078238;28;20954;-85
2021/04/27 01:13:36;;;;;;;11.60;5.17;;;5.50;99.90;;;;;;5078067;28;20456;-84
2021/04/27 01:16:03;;;;;;;8.90;4.70;;;5.50;99.90;;;;;;5078694;28;20503;-85
2021/04/27 01:18:32;;;;;;;9.43;4.40;;;5.60;99.90;;;;;;5078530;28;20531;-85
2021/04/27 01:21:01;;;;;;;12.13;4.77;;;5.50;99.90;;;;;;5078588;28;20528;-83
2021/04/27 01:23:59;;;;;;;11.50;4.60;;;5.50;99.90;;;;;;5078841;28;20449;-85
2021/04/27 01:26:35;;;;;;;12.60;4.80;;;5.60;99.90;;;;;;5067174;28;20476;-86
2021/04/27 01:29:03;;;;;;;13.13;4.40;;;5.60;99.90;;;;;;5084165;28;20434;-83
2021/04/27 01:31:29;;;;;;;11.40;4.57;;;5.60;99.90;;;;;;5089786;28;20855;-84
2021/04/27 01:33:56;;;;;;;10.60;4.80;;;5.60;99.90;;;;;;5078233;28;21024;-84
2021/04/27 01:36:23;;;;;;;13.60;4.80;;;5.60;99.90;;;;;;5078824;28;20419;-84
2021/04/27 01:38:50;;;;;;;12.10;5.50;;;5.60;99.90;;;;;;5077309;28;20565;-85
2021/04/27 01:41:17;;;;;;;10.70;4.90;;;5.50;99.90;;;;;;5083083;28;20460;-87
2021/04/27 01:43:45;;;;;;;10.57;5.60;;;5.50;99.90;;;;;;5090764;28;20488;-82
2021/04/27 01:46:12;;;;;;;13.30;5.17;;;5.50;99.90;;;;;;5098700;28;20544;-82
2021/04/27 01:48:39;;;;;;;9.87;4.03;;;5.40;99.90;;;;;;5098563;28;20454;-82
2021/04/27 01:51:09;;;;;;;9.53;4.30;;;5.30;99.90;;;;;;5084727;28;20478;-85
2021/04/27 01:53:37;;;;;;;12.80;5.30;;;5.30;99.90;;;;;;5079127;28;20462;-84
2021/04/27 01:56:04;;;;;;;25.80;5.90;;;5.30;99.90;;;;;;5080861;28;20954;-85
2021/04/27 01:58:30;;;;;;;10.43;5.47;;;5.30;99.90;;;;;;5080182;28;20483;-85
2021/04/27 02:00:59;;;;;;;15.60;6.07;;;5.30;99.90;;;;;;5081810;28;20549;-86
2021/04/27 02:03:25;;;;;;;12.57;5.23;;;5.30;99.90;;;;;;5083214;28;20457;-85
2021/04/27 02:05:51;;;;;;;9.90;4.87;;;5.20;99.90;;;;;;5079592;28;20512;-84
2021/04/27 02:08:21;;;;;;;16.13;5.20;;;5.10;99.90;;;;;;5076607;28;20595;-81
2021/04/27 02:10:48;;;;;;;25.27;6.50;;;5.10;99.90;;;;;;5075514;28;20457;-80
2021/04/27 02:13:17;;;;;;;13.30;5.90;;;5.10;99.90;;;;;;5076484;28;21212;-86
2021/04/27 02:15:45;;;;;;;10.47;4.90;;;5.10;99.90;;;;;;5076425;28;20532;-85
2021/04/27 02:18:19;;;;;;;11.50;4.80;;;5.00;99.90;;;;;;5075415;28;20479;-82
2021/04/27 02:20:46;;;;;;;14.37;7.03;;;5.10;99.90;;;;;;5075784;28;20446;-85
2021/04/27 02:23:14;;;;;;;11.90;5.13;;;5.00;99.90;;;;;;5075697;28;20433;-80
2021/04/27 02:25:42;;;;;;;11.90;5.87;;;4.90;99.90;;;;;;5084403;28;20485;-83
2021/04/27 02:28:09;;;;;;;12.40;5.70;;;4.90;99.90;;;;;;5095473;28;20459;-84
2021/04/27 02:30:37;;;;;;;15.70;5.50;;;4.90;99.90;;;;;;5078567;28;20434;-82
2021/04/27 02:33:04;;;;;;;11.50;5.63;;;4.90;99.90;;;;;;5074636;28;20525;-84
2021/04/27 02:35:31;;;;;;;12.23;5.37;;;4.90;99.90;;;;;;5074417;28;20426;-83
2021/04/27 02:37:58;;;;;;;10.60;4.20;;;4.80;99.90;;;;;;5103138;22;20497;-80
2021/04/27 02:40:26;;;;;;;13.33;4.80;;;4.80;99.90;;;;;;5129843;27;20830;-80
2021/04/27 02:42:56;;;;;;;12.23;4.90;;;4.80;99.90;;;;;;5136024;27;20455;-80
2021/04/27 02:45:30;;;;;;;15.73;5.57;;;4.70;99.90;;;;;;5124675;27;20464;-80
2021/04/27 02:48:05;;;;;;;12.97;4.57;;;4.70;99.90;;;;;;5116220;28;20483;-80
2021/04/27 02:50:32;;;;;;;10.97;5.27;;;4.60;99.90;;;;;;5098212;28;20874;-80
2021/04/27 02:52:59;;;;;;;12.97;4.60;;;4.60;99.90;;;;;;5095330;28;20433;-80
2021/04/27 02:55:25;;;;;;;13.30;4.97;;;4.60;99.90;;;;;;5110260;28;20420;-80
2021/04/27 02:57:52;;;;;;;15.23;6.27;;;4.60;99.90;;;;;;5109990;28;20474;-81
2021/04/27 03:00:19;;;;;;;12.60;4.70;;;4.50;99.90;;;;;;5094521;28;20443;-80
2021/04/27 03:02:45;;;;;;;10.57;4.67;;;4.50;99.90;;;;;;5097145;28;20424;-80
2021/04/27 03:05:13;;;;;;;9.50;4.17;;;4.60;99.90;;;;;;5111840;28;20458;-81
2021/04/27 03:07:40;;;;;;;11.13;4.60;;;4.60;99.90;;;;;;5112269;28;20447;-80
2021/04/27 03:10:07;;;;;;;11.40;4.63;;;4.60;99.90;;;;;;5095258;28;20460;-80
2021/04/27 03:12:34;;;;;;;11.50;4.87;;;4.60;99.90;;;;;;5114479;28;20457;-80
2021/04/27 03:15:01;;;;;;;11.20;4.13;;;4.60;99.90;;;;;;5114579;28;20449;-80
2021/04/27 03:17:27;;;;;;;10.53;4.40;;;4.60;99.90;;;;;;5094883;28;20451;-80
2021/04/27 03:19:54;;;;;;;9.63;4.00;;;4.60;99.90;;;;;;5094946;28;20443;-81
2021/04/27 03:22:20;;;;;;;10.80;4.80;;;4.60;99.90;;;;;;5109744;28;20432;-80
2021/04/27 03:24:47;;;;;;;10.10;4.23;;;4.60;99.90;;;;;;5094347;28;20505;-81
2021/04/27 03:27:14;;;;;;;10.13;4.37;;;4.60;99.90;;;;;;5111262;28;20551;-81
2021/04/27 03:29:40;;;;;;;11.20;4.27;;;4.50;99.90;;;;;;5114566;28;20842;-81
2021/04/27 03:32:06;;;;;;;11.83;4.30;;;4.60;99.90;;;;;;5099006;28;20452;-80
2021/04/27 03:34:33;;;;;;;9.40;4.33;;;4.60;99.90;;;;;;5094496;28;20522;-80
2021/04/27 03:36:59;;;;;;;10.50;4.20;;;4.60;99.90;;;;;;5105107;28;20451;-79
2021/04/27 03:39:26;;;;;;;10.67;4.13;;;4.60;99.90;;;;;;5111377;28;20484;-79
2021/04/27 03:41:53;;;;;;;8.93;4.80;;;4.60;99.90;;;;;;5101787;28;20421;-81
2021/04/27 03:44:19;;;;;;;9.90;4.20;;;4.60;99.90;;;;;;5093799;28;20448;-81
2021/04/27 03:46:45;;;;;;;10.10;4.50;;;4.60;99.90;;;;;;5104637;28;20484;-81
2021/04/27 03:49:12;;;;;;;9.83;3.63;;;4.60;99.90;;;;;;5113968;28;20497;-80
2021/04/27 03:51:39;;;;;;;10.23;4.90;;;4.50;99.90;;;;;;5098855;28;20455;-80
2021/04/27 03:54:05;;;;;;;9.30;3.77;;;4.50;99.90;;;;;;5099227;28;20432;-80
2021/04/27 03:56:32;;;;;;;10.20;4.20;;;4.50;99.90;;;;;;5113049;28;20449;-80
2021/04/27 03:58:59;;;;;;;8.43;4.00;;;4.60;99.90;;;;;;5119026;28;20480;-80
2021/04/27 04:01:26;;;;;;;11.50;4.10;;;4.60;99.90;;;;;;5098389;28;20426;-80
2021/04/27 04:03:52;;;;;;;9.10;3.70;;;4.60;99.90;;;;;;5111269;28;20828;-81
2021/04/27 04:06:19;;;;;;;8.87;4.10;;;4.60;99.90;;;;;;5117207;28;20494;-81
2021/04/27 04:08:46;;;;;;;13.13;4.70;;;4.50;99.90;;;;;;5105982;28;20462;-80
2021/04/27 04:11:12;;;;;;;9.47;3.93;;;4.50;99.90;;;;;;5098179;28;20443;-79
2021/04/27 04:13:38;;;;;;;10.80;4.93;;;4.50;99.90;;;;;;5099210;28;20446;-80
2021/04/27 04:16:06;;;;;;;8.77;3.93;;;4.50;99.90;;;;;;5097709;28;20442;-80
2021/04/27 04:18:33;;;;;;;13.00;4.40;;;4.50;99.90;;;;;;5107578;28;20444;-80
2021/04/27 04:20:59;;;;;;;9.93;3.77;;;4.50;99.90;;;;;;5118349;28;20803;-80
2021/04/27 04:23:26;;;;;;;8.83;3.90;;;4.50;99.90;;;;;;5109776;28;20447;-80
2021/04/27 04:25:52;;;;;;;10.40;4.53;;;4.50;99.90;;;;;;5112484;28;20482;-79
2021/04/27 04:28:19;;;;;;;11.10;4.13;;;4.50;99.90;;;;;;5109903;28;20472;-82
2021/04/27 04:30:45;;;;;;;10.77;4.17;;;4.50;99.90;;;;;;5119512;28;20442;-83
2021/04/27 04:33:12;;;;;;;8.93;3.43;;;4.50;99.90;;;;;;5119098;27;20531;-81
2021/04/27 04:35:39;;;;;;;7.80;3.83;;;4.60;99.90;;;;;;5118839;28;20510;-84
2021/04/27 04:38:06;;;;;;;10.37;3.37;;;4.60;99.90;;;;;;5118947;27;20568;-80
2021/04/27 04:40:33;;;;;;;569.17;531.90;;;4.60;99.90;;;;;;5111434;28;20427;-83
2021/04/27 04:42:59;;;;;;;1999.90;999.90;;;6.90;99.90;;;;;;5099386;28;20556;-81
2021/04/27 04:45:26;;;;;;;1999.90;999.90;;;7.80;99.90;;;;;;5110673;28;20445;-81
2021/04/27 04:47:53;;;;;;;499.87;471.10;;;6.90;99.90;;;;;;5117956;28;20471;-81
2021/04/27 04:50:21;;;;;;;452.27;426.20;;;6.50;99.90;;;;;;5118492;28;20438;-81
2021/04/27 04:52:47;;;;;;;27.97;4.17;;;6.10;99.90;;;;;;5117871;28;20456;-81
2021/04/27 04:55:15;;;;;;;18.30;4.33;;;6.00;99.90;;;;;;5115855;28;20448;-81
2021/04/27 04:57:43;;;;;;;14.87;2.80;;;5.80;99.90;;;;;;5098451;28;20417;-82
2021/04/27 05:00:12;;;;;;;12.57;3.80;;;5.80;99.90;;;;;;5097689;28;20423;-82
2021/04/27 05:02:38;;;;;;;12.63;4.10;;;5.70;99.90;;;;;;5113638;28;20825;-80
2021/04/27 05:05:05;;;;;;;11.93;4.17;;;5.50;99.90;;;;;;5119325;28;20463;-81
2021/04/27 05:07:40;;;;;;;12.03;4.30;;;5.50;99.90;;;;;;5118414;28;20570;-81
2021/04/27 05:10:07;;;;;;;9.57;3.90;;;5.50;99.90;;;;;;5118316;28;20523;-81
2021/04/27 05:12:33;;;;;;;14.73;3.80;;;5.50;99.90;;;;;;5118609;28;20823;-81
2021/04/27 05:15:00;;;;;;;9.47;3.87;;;5.50;99.90;;;;;;5104919;28;20460;-81
2021/04/27 05:17:26;;;;;;;11.00;4.33;;;5.40;99.90;;;;;;5098032;28;20415;-81
2021/04/27 05:19:53;;;;;;;9.77;3.43;;;5.50;99.90;;;;;;5110404;28;20910;-81
2021/04/27 05:22:19;;;;;;;13.03;3.90;;;5.60;99.90;;;;;;5119062;28;20918;-82
2021/04/27 05:24:47;;;;;;;13.67;3.63;;;5.60;99.90;;;;;;5109059;28;20452;-82
2021/04/27 05:27:13;;;;;;;7.93;3.07;;;5.70;99.90;;;;;;5116666;28;20490;-81
2021/04/27 05:29:39;;;;;;;13.83;3.80;;;5.70;99.90;;;;;;5118996;28;21033;-82
2021/04/27 05:32:06;;;;;;;13.63;3.93;;;5.80;99.90;;;;;;5118503;28;20461;-82
2021/04/27 05:34:33;;;;;;;12.70;3.43;;;5.90;99.90;;;;;;5108109;28;20466;-83
2021/04/27 05:37:00;;;;;;;9.77;4.07;;;5.90;99.90;;;;;;5111476;28;20458;-81
2021/04/27 05:39:27;;;;;;;12.43;3.57;;;6.00;99.90;;;;;;5106130;28;20488;-81
2021/04/27 05:41:54;;;;;;;12.27;3.70;;;6.10;99.90;;;;;;5105113;28;20540;-81
2021/04/27 05:44:20;;;;;;;17.63;4.37;;;6.10;99.90;;;;;;5095616;28;20470;-81
2021/04/27 05:46:47;;;;;;;9.10;3.40;;;6.20;99.90;;;;;;5106147;28;20487;-80
2021/04/27 05:49:13;;;;;;;10.80;3.50;;;6.20;99.90;;;;;;5100133;28;20576;-81
2021/04/27 05:51:39;;;;;;;11.70;3.20;;;6.30;99.90;;;;;;5095231;28;20460;-81
2021/04/27 05:54:06;;;;;;;11.63;4.20;;;6.30;99.90;;;;;;5105005;28;20939;-81
2021/04/27 05:56:34;;;;;;;10.07;2.70;;;6.40;99.90;;;;;;5105587;28;20452;-81
2021/04/27 05:59:01;;;;;;;10.30;3.97;;;6.40;99.90;;;;;;5102695;28;20996;-81
2021/04/27 06:01:28;;;;;;;14.07;3.63;;;6.50;99.90;;;;;;5097221;28;20464;-81
2021/04/27 06:03:54;;;;;;;13.77;3.47;;;6.50;99.90;;;;;;5104450;28;20457;-80
2021/04/27 06:06:21;;;;;;;9.27;3.07;;;6.60;99.90;;;;;;5102995;28;21045;-81
2021/04/27 06:08:47;;;;;;;10.73;3.17;;;6.70;99.90;;;;;;5115337;28;20602;-80
2021/04/27 06:11:14;;;;;;;10.30;3.20;;;6.80;99.90;;;;;;5113562;28;20448;-81
2021/04/27 06:13:40;;;;;;;11.50;3.50;;;6.90;99.90;;;;;;5110491;28;20535;-81
2021/04/27 06:16:08;;;;;;;11.70;3.97;;;7.00;99.90;;;;;;5115161;28;20453;-81
2021/04/27 06:18:35;;;;;;;12.03;2.57;;;7.10;99.90;;;;;;5112530;28;20491;-81
2021/04/27 06:21:02;;;;;;;10.10;3.40;;;7.20;99.90;;;;;;5121632;28;20455;-81
2021/04/27 06:23:29;;;;;;;13.50;3.27;;;7.30;99.90;;;;;;5102357;28;20503;-81
2021/04/27 06:25:55;;;;;;;13.33;3.23;;;7.30;99.90;;;;;;5097332;28;20485;-81
2021/04/27 06:28:23;;;;;;;10.37;3.13;;;7.40;99.90;;;;;;5106392;28;20469;-82
2021/04/27 06:30:49;;;;;;;13.13;3.67;;;7.50;99.90;;;;;;5102214;28;20509;-81
2021/04/27 06:33:17;;;;;;;14.63;3.13;;;7.60;99.90;;;;;;5102768;28;20836;-81
2021/04/27 06:35:43;;;;;;;14.33;2.80;;;7.70;99.90;;;;;;5107007;28;20461;-81
2021/04/27 06:38:10;;;;;;;14.20;3.03;;;7.80;99.90;;;;;;5100537;28;20479;-80
2021/04/27 06:40:39;;;;;;;13.77;2.70;;;7.80;99.90;;;;;;5104933;28;20453;-80
2021/04/27 06:43:05;;;;;;;18.27;2.60;;;7.90;99.90;;;;;;5106799;28;20488;-80
2021/04/27 06:45:31;;;;;;;14.80;3.40;;;7.90;99.90;;;;;;5112077;28;20978;-80
2021/04/27 06:47:58;;;;;;;15.97;3.30;;;8.00;99.90;;;;;;5106466;28;20519;-79
2021/04/27 06:50:25;;;;;;;12.80;2.57;;;8.10;99.90;;;;;;5109669;28;20535;-79
2021/04/27 06:52:51;;;;;;;15.33;2.80;;;8.20;99.90;;;;;;5098334;28;21024;-80
2021/04/27 06:55:17;;;;;;;12.33;2.90;;;8.30;99.90;;;;;;5097275;28;20490;-80
2021/04/27 06:57:44;;;;;;;13.13;3.00;;;8.40;99.90;;;;;;5110269;28;20509;-80
2021/04/27 07:00:11;;;;;;;20.53;3.67;;;8.50;99.90;;;;;;5103473;28;20499;-80
2021/04/27 07:02:37;;;;;;;13.57;2.53;;;8.60;99.90;;;;;;5109916;28;20948;-79
2021/04/27 07:05:05;;;;;;;13.80;2.80;;;8.80;99.90;;;;;;5111586;28;20463;-80
2021/04/27 07:07:32;;;;;;;12.53;2.53;;;9.00;99.90;;;;;;5106561;28;20481;-80
2021/04/27 07:09:58;;;;;;;13.23;2.70;;;9.50;99.90;;;;;;5115078;27;20487;-81
2021/04/27 07:12:24;;;;;;;11.23;2.37;;;9.80;99.90;;;;;;5113315;27;20449;-80
2021/04/27 07:14:51;;;;;;;11.00;3.23;;;10.10;99.90;;;;;;5114641;27;20519;-81
2021/04/27 07:17:17;;;;;;;12.10;3.00;;;10.70;99.90;;;;;;5113981;28;20437;-81
2021/04/27 07:19:43;;;;;;;10.50;2.30;;;11.10;99.90;;;;;;5113625;27;20473;-81
2021/04/27 07:22:10;;;;;;;14.93;2.87;;;11.50;99.90;;;;;;5106836;28;20510;-81
2021/04/27 07:24:37;;;;;;;13.23;2.40;;;11.80;99.50;;;;;;5107159;27;20532;-82
2021/04/27 07:27:04;;;;;;;19.73;3.20;;;12.10;99.90;;;;;;5102622;28;20484;-81
2021/04/27 07:29:30;;;;;;;10.37;2.60;;;12.70;97.10;;;;;;5106569;28;20473;-81
2021/04/27 07:31:57;;;;;;;10.93;3.00;;;13.40;95.40;;;;;;5109980;28;20459;-81
2021/04/27 07:34:23;;;;;;;9.00;2.37;;;13.40;94.70;;;;;;5113756;28;20473;-79
2021/04/27 07:37:03;;;;;;;9.43;2.80;;;13.90;93.30;;;;;;5113939;28;20469;-81
2021/04/27 07:39:35;;;;;;;8.50;2.70;;;14.10;90.20;;;;;;5104025;28;20466;-80
2021/04/27 07:42:02;;;;;;;7.63;2.10;;;14.10;87.00;;;;;;5113425;28;20819;-81
2021/04/27 07:44:29;;;;;;;12.47;2.87;;;14.90;90.50;;;;;;5114219;28;20474;-81
2021/04/27 07:46:55;;;;;;;10.80;2.70;;;15.60;83.40;;;;;;5107748;28;20485;-81
2021/04/27 07:49:21;;;;;;;9.00;2.20;;;16.50;80.60;;;;;;5106708;28;20513;-82
2021/04/27 07:51:48;;;;;;;11.83;2.83;;;17.40;75.70;;;;;;5100955;28;20453;-82
2021/04/27 07:54:14;;;;;;;10.10;2.93;;;17.90;71.00;;;;;;5111715;28;20448;-82
2021/04/27 07:56:40;;;;;;;8.10;3.03;;;18.20;67.50;;;;;;5117032;27;20556;-81
2021/04/27 07:59:08;;;;;;;9.93;3.67;;;18.80;67.50;;;;;;5112420;28;20580;-82
2021/04/27 08:01:37;;;;;;;6.60;2.33;;;19.70;69.20;;;;;;5109249;28;20446;-81
2021/04/27 08:04:03;;;;;;;10.00;2.70;;;20.30;64.60;;;;;;5118069;28;20486;-81
2021/04/27 08:06:30;;;;;;;6.70;2.20;;;20.60;59.80;;;;;;5107605;28;20819;-82
2021/04/27 08:08:57;;;;;;;7.93;2.30;;;21.10;63.50;;;;;;5119079;28;20505;-81
2021/04/27 08:11:23;;;;;;;8.73;3.00;;;21.30;58.80;;;;;;5108875;28;20467;-80
2021/04/27 08:13:50;;;;;;;6.43;1.80;;;20.90;55.50;;;;;;5118384;28;20550;-80
2021/04/27 08:16:17;;;;;;;7.77;2.43;;;21.10;51.30;;;;;;5109671;28;20451;-81
2021/04/27 08:18:44;;;;;;;9.90;2.43;;;21.60;51.80;;;;;;5103829;28;20557;-82
2021/04/27 08:21:12;;;;;;;6.77;2.40;;;21.70;49.80;;;;;;5102779;28;20527;-80
2021/04/27 08:23:40;;;;;;;6.50;2.10;;;21.10;48.80;;;;;;5113658;28;20449;-81
2021/04/27 08:26:07;;;;;;;6.80;2.07;;;22.30;50.00;;;;;;5111744;28;20481;-82
2021/04/27 08:28:34;;;;;;;8.07;2.40;;;23.00;48.80;;;;;;5111500;28;20465;-83
2021/04/27 08:31:00;;;;;;;7.43;2.10;;;23.10;48.90;;;;;;5112566;28;20478;-81
2021/04/27 08:33:28;;;;;;;6.80;2.00;;;23.40;48.00;;;;;;5116372;28;21064;-82
2021/04/27 08:35:55;;;;;;;7.00;2.17;;;22.50;47.60;;;;;;5109513;28;20429;-83
2021/04/27 08:38:22;;;;;;;11.70;2.40;;;23.20;49.10;;;;;;5109464;27;20485;-82
2021/04/27 08:40:49;;;;;;;8.13;2.13;;;24.40;48.40;;;;;;5119106;27;20485;-82
2021/04/27 08:43:16;;;;;;;6.30;2.17;;;24.00;46.60;;;;;;5110255;28;20522;-82
2021/04/27 08:45:43;;;;;;;6.90;1.77;;;23.90;44.80;;;;;;5107336;28;20453;-83
2021/04/27 08:48:10;;;;;;;7.33;2.30;;;24.40;45.50;;;;;;5118165;28;20471;-83
2021/04/27 08:50:37;;;;;;;7.63;1.90;;;25.00;46.00;;;;;;5109113;28;20483;-82
2021/04/27 08:53:04;;;;;;;6.23;1.70;;;24.60;44.10;;;;;;5113015;28;20515;-81
2021/04/27 08:55:31;;;;;;;6.70;2.20;;;24.50;45.50;;;;;;5117422;28;21016;-83
2021/04/27 08:57:57;;;;;;;7.60;2.33;;;24.80;47.60;;;;;;5118243;28;20560;-82
2021/04/27 09:00:24;;;;;;;6.80;1.77;;;23.90;42.30;;;;;;5116879;28;20445;-83
2021/04/27 09:02:55;;;;;;;6.73;2.03;;;24.90;43.00;;;;;;5112697;28;20970;-82
2021/04/27 09:05:23;;;;;;;6.53;1.70;;;25.80;42.30;;;;;;5119302;27;20896;-83
2021/04/27 09:07:52;;;;;;;7.37;1.73;;;26.60;39.90;;;;;;5110807;27;20489;-82
2021/04/27 09:10:20;;;;;;;6.17;1.93;;;26.60;43.10;;;;;;5115740;28;20455;-82
2021/04/27 09:12:50;;;;;;;6.40;1.80;;;26.00;38.30;;;;;;5109552;28;20887;-83
2021/04/27 09:15:34;;;;;;;6.80;1.73;;;25.70;42.50;;;;;;5094960;28;20507;-81
2021/04/27 09:18:30;;;;;;;6.60;1.87;;;26.20;38.90;;;;;;5107815;27;21076;-82
2021/04/27 09:20:59;;;;;;;9.97;2.00;;;27.20;40.30;;;;;;5112189;27;20460;-82
2021/04/27 09:23:28;;;;;;;7.47;2.10;;;27.50;39.50;;;;;;5107940;28;20867;-83
2021/04/27 09:26:09;;;;;;;8.43;2.37;;;27.80;36.50;;;;;;5102142;28;20830;-82
2021/04/27 09:28:36;;;;;;;7.03;2.47;;;27.40;36.30;;;;;;5116510;28;20452;-81
2021/04/27 09:31:23;;;;;;;6.97;2.70;;;26.20;40.30;;;;;;5097770;28;20533;-83
2021/04/27 09:33:50;;;;;;;8.53;2.07;;;26.60;39.50;;;;;;5115996;28;21009;-82
2021/04/27 09:36:21;;;;;;;6.00;2.00;;;26.70;37.70;;;;;;5097076;28;20904;-82
2021/04/27 09:38:51;;;;;;;7.50;2.40;;;25.80;41.60;;;;;;5097700;28;20482;-82
2021/04/27 09:41:17;;;;;;;7.00;1.83;;;27.10;39.90;;;;;;5114778;28;20463;-83
2021/04/27 09:43:45;;;;;;;5.70;1.87;;;26.40;38.90;;;;;;5116699;28;20453;-84
2021/04/27 09:46:13;;;;;;;7.93;1.80;;;26.30;39.00;;;;;;5101189;28;20493;-82
2021/04/27 09:48:43;;;;;;;6.50;1.70;;;27.00;40.50;;;;;;5095060;28;20503;-81
2021/04/27 09:51:24;;;;;;;8.00;2.40;;;27.40;35.90;;;;;;5110833;28;20814;-82
2021/04/27 09:53:54;;;;;;;7.97;1.80;;;28.10;35.70;;;;;;5100991;28;20442;-81
2021/04/27 09:56:35;;;;;;;6.17;2.00;;;28.80;37.50;;;;;;5112919;28;20536;-83
2021/04/27 09:59:03;;;;;;;5.80;2.10;;;28.70;34.70;;;;;;5103875;28;20511;-81
2021/04/27 10:01:30;;;;;;;8.50;2.20;;;28.40;36.80;;;;;;5104037;28;20453;-83
2021/04/27 10:03:56;;;;;;;7.40;2.83;;;28.50;36.40;;;;;;5112990;27;20971;-83
2021/04/27 10:06:23;;;;;;;7.90;2.13;;;28.30;35.40;;;;;;5112832;28;20484;-82
2021/04/27 10:08:49;;;;;;;9.80;2.70;;;29.00;36.40;;;;;;5107280;28;20556;-84
2021/04/27 10:11:17;;;;;;;8.33;2.53;;;29.50;34.20;;;;;;5111649;28;20449;-84
2021/04/27 10:13:44;;;;;;;7.20;2.40;;;30.00;35.70;;;;;;5093859;28;20446;-82
2021/04/27 10:16:10;;;;;;;5.70;2.00;;;29.80;35.80;;;;;;5103884;27;20460;-82
2021/04/27 10:18:37;;;;;;;8.37;2.27;;;30.00;35.70;;;;;;5119126;27;20469;-82
2021/04/27 10:21:05;;;;;;;6.90;2.10;;;29.80;34.90;;;;;;5105343;28;20828;-83
2021/04/27 10:23:32;;;;;;;8.60;2.33;;;30.30;33.30;;;;;;5116996;28;20463;-83
2021/04/27 10:25:59;;;;;;;7.93;2.37;;;30.00;31.90;;;;;;5108073;28;20977;-82
2021/04/27 10:28:56;;;;;;;7.23;2.30;;;30.30;33.00;;;;;;5113762;28;20494;-83
2021/04/27 10:31:22;;;;;;;7.40;2.43;;;31.30;35.80;;;;;;5098578;28;21009;-84
2021/04/27 10:33:58;;;;;;;7.53;2.40;;;32.60;35.50;;;;;;5096110;28;20454;-84
2021/04/27 10:36:26;;;;;;;5.80;2.07;;;33.60;34.10;;;;;;5095837;28;20452;-83
2021/04/27 10:38:56;;;;;;;6.90;3.10;;;32.50;32.30;;;;;;5094508;28;20489;-84
2021/04/27 10:41:25;;;;;;;7.40;2.20;;;30.70;35.30;;;;;;5093964;28;20450;-84
2021/04/27 10:44:00;;;;;;;7.30;2.67;;;30.20;32.20;;;;;;5101081;28;20893;-82
2021/04/27 10:46:58;;;;;;;8.27;2.67;;;31.10;31.70;;;;;;5126049;27;20890;-82
2021/04/27 10:49:37;;;;;;;9.23;3.23;;;29.80;32.00;;;;;;5107974;27;20473;-82
2021/04/27 10:52:05;;;;;;;8.90;2.30;;;29.90;32.70;;;;;;5104099;28;20450;-82
2021/04/27 10:54:37;;;;;;;6.83;2.90;;;29.80;32.60;;;;;;5104175;27;20486;-84
2021/04/27 10:57:15;;;;;;;7.10;2.27;;;30.10;34.50;;;;;;5119768;27;20516;-82
2021/04/27 10:59:57;;;;;;;9.70;2.80;;;31.30;32.40;;;;;;5119435;27;20472;-83
2021/04/27 11:02:28;;;;;;;7.10;2.70;;;30.90;29.80;;;;;;5115635;27;20440;-82
2021/04/27 11:05:01;;;;;;;10.90;2.47;;;30.20;29.60;;;;;;5121315;27;20984;-83
2021/04/27 11:07:32;;;;;;;6.30;2.57;;;30.30;30.80;;;;;;5117422;28;20515;-83
2021/04/27 11:10:34;;;;;;;12.20;2.53;;;30.00;32.50;;;;;;5107086;28;20479;-81
2021/04/27 11:13:05;;;;;;;6.40;2.23;;;30.40;31.50;;;;;;5109557;27;20837;-83
2021/04/27 11:15:36;;;;;;;6.50;2.50;;;31.90;32.30;;;;;;5128892;27;20445;-83
2021/04/27 11:18:08;;;;;;;5.90;2.13;;;32.10;31.20;;;;;;5113706;27;21010;-83
2021/04/27 11:20:53;;;;;;;7.07;2.80;;;31.30;30.30;;;;;;5115012;27;20918;-81
2021/04/27 11:23:38;;;;;;;8.50;2.90;;;33.30;30.40;;;;;;5114282;28;20456;-81
2021/04/27 11:26:51;;;;;;;6.50;2.40;;;33.60;30.10;;;;;;5116531;28;20937;-82
2021/04/27 11:29:26;;;;;;;7.23;2.30;;;35.00;31.50;;;;;;5117842;28;20493;-82
2021/04/27 11:32:20;;;;;;;7.50;2.30;;;35.00;29.50;;;;;;5102863;28;20446;-84
2021/04/27 11:35:01;;;;;;;6.30;2.70;;;34.60;28.00;;;;;;5108124;28;20979;-82
2021/04/27 11:37:31;;;;;;;6.53;2.33;;;32.00;31.40;;;;;;5114250;28;20509;-81
2021/04/27 11:40:00;;;;;;;8.77;2.20;;;31.60;32.80;;;;;;5116393;28;20469;-82
2021/04/27 11:42:31;;;;;;;6.10;2.40;;;32.90;29.60;;;;;;5113603;28;20543;-83
2021/04/27 11:45:00;;;;;;;7.00;2.23;;;33.30;31.50;;;;;;5116028;28;20470;-83
2021/04/27 11:47:33;;;;;;;9.43;2.87;;;34.00;30.10;;;;;;5116334;28;20967;-83
2021/04/27 11:50:01;;;;;;;6.80;1.97;;;33.30;29.50;;;;;;5117551;28;20980;-85
2021/04/27 11:52:42;;;;;;;6.57;2.77;;;31.60;30.80;;;;;;5111024;28;20545;-84
2021/04/27 11:55:15;;;;;;;6.77;2.23;;;32.40;29.60;;;;;;5116890;28;20498;-85
2021/04/27 11:57:46;;;;;;;6.80;2.20;;;32.30;31.10;;;;;;5117924;28;20445;-84
2021/04/27 12:00:14;;;;;;;6.57;2.20;;;33.60;31.80;;;;;;5100463;28;20498;-83
2021/04/27 12:02:41;;;;;;;12.13;2.50;;;34.30;29.00;;;;;;5110369;28;20482;-83
2021/04/27 12:05:09;;;;;;;5.90;2.13;;;34.30;29.30;;;;;;5111321;28;20452;-84
2021/04/27 12:07:36;;;;;;;8.50;1.77;;;35.20;30.80;;;;;;5109730;28;20497;-83
2021/04/27 12:10:04;;;;;;;6.00;2.17;;;34.90;32.00;;;;;;5116294;28;20447;-84
2021/04/27 12:12:30;;;;;;;6.50;2.40;;;34.40;29.70;;;;;;5115686;28;20445;-84
2021/04/27 12:14:59;;;;;;;6.13;1.97;;;33.90;30.50;;;;;;5114210;27;20448;-85
2021/04/27 12:17:27;;;;;;;7.10;2.50;;;35.00;29.50;;;;;;5110883;27;20494;-82
2021/04/27 12:20:10;;;;;;;6.67;2.40;;;35.30;28.00;;;;;;5121278;27;20219;-84
2021/04/27 12:22:42;;;;;;;6.10;2.13;;;35.10;28.60;;;;;;5112795;27;20545;-86
2021/04/27 12:25:21;;;;;;;8.57;2.60;;;36.90;29.60;;;;;;5108203;28;20485;-85
2021/04/27 12:27:48;;;;;;;7.43;2.20;;;36.90;29.50;;;;;;5099254;28;20495;-85
2021/04/27 12:30:18;;;;;;;7.90;2.70;;;35.80;29.80;;;;;;5114685;28;20457;-82
2021/04/27 12:32:48;;;;;;;8.30;2.80;;;35.40;27.50;;;;;;5118360;28;20971;-85
2021/04/27 12:35:23;;;;;;;7.23;2.63;;;34.30;28.30;;;;;;5112312;28;20450;-84
2021/04/27 12:38:00;;;;;;;6.57;1.93;;;34.10;29.70;;;;;;5118013;28;20437;-84
2021/04/27 12:40:28;;;;;;;5.37;2.00;;;34.10;27.20;;;;;;5133861;27;20462;-85
2021/04/27 12:42:56;;;;;;;6.03;2.20;;;34.70;27.70;;;;;;5120011;27;20457;-84
2021/04/27 12:45:29;;;;;;;5.47;2.00;;;35.20;29.00;;;;;;5120279;28;20482;-84
2021/04/27 12:48:03;;;;;;;6.43;2.40;;;35.70;28.00;;;;;;5118772;28;20516;-83
2021/04/27 12:50:30;;;;;;;8.43;3.17;;;35.70;28.10;;;;;;5105586;28;20446;-84
2021/04/27 12:53:00;;;;;;;8.60;2.10;;;36.00;27.20;;;;;;5107060;27;20498;-84
2021/04/27 12:55:29;;;;;;;7.23;2.40;;;35.40;27.10;;;;;;5101495;28;20454;-85
2021/04/27 12:58:08;;;;;;;6.63;2.17;;;35.10;29.50;;;;;;5115966;28;20525;-83